createdAt,value
2022-08-17T00:01:52.171Z,99121.53
2022-08-17T00:04:21.267Z,99125.03
2022-08-17T00:06:49.903Z,99109.75
2022-08-17T00:09:18.904Z,99097.28
2022-08-17T00:12:34.831Z,99109.25
2022-08-17T00:14:35.667Z,99115.44
2022-08-17T00:17:02.376Z,99112.25
2022-08-17T00:19:29.454Z,99111.38
2022-08-17T00:22:31.938Z,99111.84
2022-08-17T00:24:47.079Z,99107.13
2022-08-17T00:27:13.725Z,99114.41
2022-08-17T00:29:40.519Z,99109.72
2022-08-17T00:33:11.985Z,99110.59
2022-08-17T00:34:54.382Z,99112.25
2022-08-17T00:37:22.813Z,99103.69
2022-08-17T00:39:51.611Z,99103.25
2022-08-17T00:42:19.599Z,99098.97
2022-08-17T00:44:50.583Z,99088.13
2022-08-17T00:47:24.657Z,99097.31
2022-08-17T00:49:51.552Z,99094.91
2022-08-17T00:52:22.429Z,99097.06
2022-08-17T00:54:54.695Z,99093.66
2022-08-17T00:57:24.913Z,99089.91
2022-08-17T01:00:02.520Z,99091.03
2022-08-17T01:02:35.010Z,99086.13
2022-08-17T01:05:17.169Z,99072.22
2022-08-17T01:07:47.721Z,99085.28
2022-08-17T01:10:59.224Z,99082.91
2022-08-17T01:13:08.012Z,99084.91
2022-08-17T01:15:40.027Z,99070.72
2022-08-17T01:18:09.913Z,99073.63
2022-08-17T01:20:48.604Z,99081.69
2022-08-17T01:23:20.770Z,99083.72
2022-08-17T01:25:49.867Z,99082.91
2022-08-17T01:28:33.330Z,99084.38
2022-08-17T01:31:07.009Z,99084.59
2022-08-17T01:33:34.397Z,99092.69
2022-08-17T01:36:00.994Z,99080.47
2022-08-17T01:38:29.024Z,99093.31
2022-08-17T01:41:00.447Z,99090.38
2022-08-17T01:43:31.199Z,99091.19
2022-08-17T01:46:02.728Z,99079.25
2022-08-17T01:48:36.489Z,99079.84
2022-08-17T01:51:03.448Z,99092.25
2022-08-17T01:53:35.373Z,99083.97
2022-08-17T01:56:07.839Z,99086.31
2022-08-17T01:58:36.001Z,99085.22
2022-08-17T02:01:04.599Z,99089.00
2022-08-17T02:03:35.499Z,99084.31
2022-08-17T02:06:05.787Z,99092.19
2022-08-17T02:09:01.483Z,99094.03
2022-08-17T02:11:31.594Z,99086.28
2022-08-17T02:14:03.328Z,99089.03
2022-08-17T02:16:37.652Z,99081.31
2022-08-17T02:19:06.603Z,99083.00
2022-08-17T02:21:33.324Z,99078.53
2022-08-17T02:24:01.768Z,99087.25
2022-08-17T02:26:28.525Z,99084.66
2022-08-17T02:28:55.385Z,99082.78
2022-08-17T02:31:22.070Z,99085.56
2022-08-17T02:34:04.005Z,99078.66
2022-08-17T02:36:32.220Z,99082.28
2022-08-17T02:39:01.681Z,99084.88
2022-08-17T02:41:28.431Z,99082.91
2022-08-17T02:43:55.040Z,99081.19
2022-08-17T02:46:21.693Z,99082.34
2022-08-17T02:48:48.493Z,99076.78
2022-08-17T02:51:15.169Z,99078.28
2022-08-17T02:53:42.281Z,99076.53
2022-08-17T02:56:10.560Z,99076.13
2022-08-17T02:58:38.546Z,99074.44
2022-08-17T03:01:06.427Z,99080.16
2022-08-17T03:03:34.650Z,99078.28
2022-08-17T03:06:01.590Z,99078.50
2022-08-17T03:08:28.895Z,99069.34
2022-08-17T03:10:55.732Z,99070.56
2022-08-17T03:13:23.989Z,99071.91
2022-08-17T03:15:50.746Z,99063.72
2022-08-17T03:18:25.051Z,99069.97
2022-08-17T03:20:54.542Z,99071.94
2022-08-17T03:23:24.396Z,99056.09
2022-08-17T03:25:53.249Z,99070.84
2022-08-17T03:28:24.373Z,99056.94
2022-08-17T03:30:51.744Z,99062.81
2022-08-17T03:33:19.402Z,99064.50
2022-08-17T03:35:46.912Z,99069.34
2022-08-17T03:38:15.181Z,99071.06
2022-08-17T03:40:57.160Z,99066.34
2022-08-17T03:43:30.432Z,99075.09
2022-08-17T03:45:57.735Z,99063.44
2022-08-17T03:48:25.223Z,99065.25
2022-08-17T03:50:52.501Z,99067.78
2022-08-17T03:53:19.239Z,99073.34
2022-08-17T03:55:45.937Z,99074.88
2022-08-17T03:58:12.599Z,99072.06
2022-08-17T04:00:40.679Z,99076.34
2022-08-17T04:03:09.085Z,99079.13
2022-08-17T04:05:35.827Z,99076.88
2022-08-17T04:08:02.740Z,99079.66
2022-08-17T04:10:34.013Z,99075.63
2022-08-17T04:13:08.132Z,99083.28
2022-08-17T04:15:34.738Z,99075.63
2022-08-17T04:18:02.783Z,99075.59
2022-08-17T04:20:29.587Z,99079.44
2022-08-17T04:22:58.806Z,99080.16
2022-08-17T04:25:26.343Z,99086.13
2022-08-17T04:27:54.598Z,99093.19
2022-08-17T04:30:23.288Z,99106.69
2022-08-17T04:33:05.050Z,99095.66
2022-08-17T04:35:37.364Z,99097.81
2022-08-17T04:38:05.217Z,99103.22
2022-08-17T04:40:32.625Z,99097.97
2022-08-17T04:43:04.370Z,99108.94
2022-08-17T04:45:32.413Z,99108.13
2022-08-17T04:48:00.504Z,99103.28
2022-08-17T04:50:27.210Z,99100.75
2022-08-17T04:53:05.821Z,99104.66
2022-08-17T04:55:53.420Z,99108.34
2022-08-17T04:58:23.277Z,99096.13
2022-08-17T05:00:49.959Z,99105.19
2022-08-17T05:03:16.575Z,99106.75
2022-08-17T05:05:45.290Z,99107.19
2022-08-17T05:08:17.607Z,99105.50
2022-08-17T05:10:45.494Z,99102.59
2022-08-17T05:13:14.433Z,99103.25
2022-08-17T05:15:44.826Z,99105.00
2022-08-17T05:18:13.084Z,99108.47
2022-08-17T05:20:40.698Z,99111.50
2022-08-17T05:23:09.388Z,99099.69
2022-08-17T05:25:42.287Z,99099.06
2022-08-17T05:28:15.038Z,99108.31
2022-08-17T05:30:44.008Z,99087.78
2022-08-17T05:33:13.023Z,99095.06
2022-08-17T05:35:46.040Z,99100.44
2022-08-17T05:38:13.216Z,99100.84
2022-08-17T05:40:43.708Z,99093.97
2022-08-17T05:43:12.573Z,99083.44
2022-08-17T05:45:54.351Z,99085.50
2022-08-17T05:48:35.495Z,99096.19
2022-08-17T05:51:28.029Z,99095.09
2022-08-17T05:54:15.757Z,99102.47
2022-08-17T05:57:08.500Z,99091.19
2022-08-17T05:59:46.153Z,99080.34
2022-08-17T06:02:38.726Z,99087.59
2022-08-17T06:05:32.140Z,99083.66
2022-08-17T06:08:06.774Z,99083.06
2022-08-17T06:10:46.924Z,99088.47
2022-08-17T06:13:40.820Z,99079.88
2022-08-17T06:16:31.173Z,99079.81
2022-08-17T06:19:06.680Z,99077.44
2022-08-17T06:21:36.005Z,99097.75
2022-08-17T06:24:07.065Z,99115.53
2022-08-17T06:26:43.308Z,99093.00
2022-08-17T06:29:20.025Z,99112.06
2022-08-17T06:31:47.068Z,99105.72
2022-08-17T06:34:14.155Z,99129.03
2022-08-17T06:37:05.307Z,99128.66
2022-08-17T06:39:43.179Z,99134.50
2022-08-17T06:42:54.943Z,99147.69
2022-08-17T06:45:15.800Z,99131.78
2022-08-17T06:47:52.940Z,99151.44
2022-08-17T06:50:29.564Z,99147.28
2022-08-17T06:52:59.552Z,99159.31
2022-08-17T06:55:34.533Z,99155.84
2022-08-17T06:58:15.923Z,99157.41
2022-08-17T07:00:47.567Z,99156.88
2022-08-17T07:03:24.056Z,99158.72
2022-08-17T07:05:54.740Z,99154.13
2022-08-17T07:08:32.028Z,99158.19
2022-08-17T07:11:06.159Z,99163.38
2022-08-17T07:13:41.959Z,99168.31
2022-08-17T07:16:19.947Z,99167.56
2022-08-17T07:18:49.791Z,99181.56
2022-08-17T07:21:34.509Z,99188.69
2022-08-17T07:24:29.390Z,99182.00
2022-08-17T07:27:11.560Z,99189.56
2022-08-17T07:29:42.860Z,99191.03
2022-08-17T07:32:13.927Z,99185.00
2022-08-17T07:35:17.659Z,99179.91
2022-08-17T07:37:50.221Z,99180.63
2022-08-17T07:40:24.304Z,99182.91
2022-08-17T07:43:22.375Z,99188.47
2022-08-17T07:46:03.942Z,99186.69
2022-08-17T07:48:36.339Z,99186.28
2022-08-17T07:51:15.171Z,99185.88
2022-08-17T07:53:41.838Z,99182.22
2022-08-17T07:56:08.699Z,99181.47
2022-08-17T07:58:36.680Z,99178.63
2022-08-17T08:01:07.652Z,99179.50
2022-08-17T08:03:41.289Z,99182.47
2022-08-17T08:06:19.891Z,99179.75
2022-08-17T08:08:55.844Z,99190.84
2022-08-17T08:11:31.214Z,99196.34
2022-08-17T08:14:20.387Z,99194.50
2022-08-17T08:16:57.904Z,99198.03
2022-08-17T08:19:28.348Z,99198.78
2022-08-17T08:22:05.398Z,99207.69
2022-08-17T08:24:57.328Z,99218.53
2022-08-17T08:27:45.762Z,99206.34
2022-08-17T08:30:15.957Z,99202.63
2022-08-17T08:33:01.482Z,99206.97
2022-08-17T08:35:32.989Z,99205.59
2022-08-17T08:38:08.762Z,99212.97
2022-08-17T08:41:08.154Z,99216.88
2022-08-17T08:43:52.796Z,99213.97
2022-08-17T08:46:43.201Z,99212.38
2022-08-17T08:50:01.867Z,99226.13
2022-08-17T08:52:43.711Z,99220.00
2022-08-17T08:55:18.330Z,99212.19
2022-08-17T08:57:53.959Z,99209.28
2022-08-17T09:00:23.318Z,99206.81
2022-08-17T09:03:17.302Z,99199.00
2022-08-17T09:05:59.317Z,99201.06
2022-08-17T09:08:37.094Z,99199.16
2022-08-17T09:11:06.325Z,99199.78
2022-08-17T09:13:44.342Z,99198.38
2022-08-17T09:16:17.925Z,99206.88
2022-08-17T09:19:00.068Z,99197.16
2022-08-17T09:21:37.383Z,99195.97
2022-08-17T09:24:13.956Z,99199.47
2022-08-17T09:26:53.298Z,99197.28
2022-08-17T09:29:22.454Z,99197.88
2022-08-17T09:31:55.347Z,99194.78
2022-08-17T09:34:33.150Z,99200.13
2022-08-17T09:37:11.021Z,99200.53
2022-08-17T09:39:47.034Z,99212.91
2022-08-17T09:42:21.349Z,99208.00
2022-08-17T09:44:53.888Z,99205.19
2022-08-17T09:47:29.796Z,99204.28
2022-08-17T09:50:02.894Z,99214.25
2022-08-17T09:52:31.156Z,99216.88
2022-08-17T09:55:00.397Z,99218.91
2022-08-17T09:57:42.116Z,99215.00
2022-08-17T10:00:20.609Z,99211.69
2022-08-17T10:03:20.164Z,99222.19
2022-08-17T10:05:57.221Z,99223.69
2022-08-17T10:08:36.630Z,99221.41
2022-08-17T10:11:33.500Z,99231.50
2022-08-17T10:14:36.742Z,99231.44
2022-08-17T10:17:07.838Z,99243.94
2022-08-17T10:19:39.525Z,99246.69
2022-08-17T10:22:34.527Z,99248.22
2022-08-17T10:25:22.331Z,99248.91
2022-08-17T10:27:59.797Z,99244.34
2022-08-17T10:30:32.712Z,99238.44
2022-08-17T10:33:04.553Z,99245.72
2022-08-17T10:35:41.410Z,99253.91
2022-08-17T10:38:30.381Z,99252.00
2022-08-17T10:41:04.527Z,99258.78
2022-08-17T10:43:43.732Z,99245.50
2022-08-17T10:46:46.337Z,99236.06
2022-08-17T10:49:24.547Z,99236.72
2022-08-17T10:51:52.985Z,99231.97
2022-08-17T10:54:40.749Z,99228.94
2022-08-17T10:57:40.226Z,99230.69
2022-08-17T11:01:05.024Z,99226.41
2022-08-17T11:03:32.004Z,99229.84
2022-08-17T11:06:15.372Z,99230.53
2022-08-17T11:09:07.348Z,99236.97
2022-08-17T11:11:50.189Z,99226.84
2022-08-17T11:14:28.517Z,99215.22
2022-08-17T11:17:14.824Z,99222.50
2022-08-17T11:20:18.205Z,99220.97
2022-08-17T11:23:05.432Z,99225.72
2022-08-17T11:25:36.261Z,99230.09
2022-08-17T11:28:14.895Z,99234.69
2022-08-17T11:30:49.062Z,99247.84
2022-08-17T11:33:56.854Z,99247.00
2022-08-17T11:36:40.248Z,99242.66
2022-08-17T11:39:28.692Z,99230.81
2022-08-17T11:42:08.731Z,99229.16
2022-08-17T11:44:50.537Z,99224.78
2022-08-17T11:47:25.460Z,99227.84
2022-08-17T11:50:07.940Z,99230.25
2022-08-17T11:52:41.204Z,99225.56
2022-08-17T11:55:35.735Z,99230.06
2022-08-17T11:58:25.696Z,99237.97
2022-08-17T12:00:55.695Z,99230.38
2022-08-17T12:03:53.808Z,99236.72
2022-08-17T12:06:31.663Z,99237.63
2022-08-17T12:09:06.086Z,99233.41
2022-08-17T12:12:04.645Z,99240.97
2022-08-17T12:14:51.702Z,99250.38
2022-08-17T12:17:40.637Z,99247.81
2022-08-17T12:20:14.661Z,99251.81
2022-08-17T12:22:49.807Z,99249.78
2022-08-17T12:25:22.396Z,99245.34
2022-08-17T12:28:06.201Z,99248.75
2022-08-17T12:30:35.857Z,99248.09
2022-08-17T12:33:11.842Z,99237.41
2022-08-17T12:35:38.501Z,99252.16
2022-08-17T12:38:07.431Z,99237.47
2022-08-17T12:40:55.505Z,99237.16
2022-08-17T12:43:27.455Z,99231.44
2022-08-17T12:45:57.529Z,99237.84
2022-08-17T12:48:27.551Z,99227.94
2022-08-17T12:51:01.595Z,99237.44
2022-08-17T12:53:32.225Z,99238.53
2022-08-17T12:56:00.346Z,99239.47
2022-08-17T12:58:33.921Z,99238.63
2022-08-17T13:01:03.724Z,99230.44
2022-08-17T13:03:38.550Z,99231.00
2022-08-17T13:06:07.643Z,99246.91
2022-08-17T13:08:37.675Z,99232.16
2022-08-17T13:11:07.142Z,99237.41
2022-08-17T13:13:36.455Z,99236.13
2022-08-17T13:16:05.964Z,99239.50
2022-08-17T13:18:40.692Z,99246.75
2022-08-17T13:21:16.680Z,99254.00
2022-08-17T13:23:57.436Z,99247.16
2022-08-17T13:26:29.068Z,99252.78
2022-08-17T13:28:57.691Z,99249.91
2022-08-17T13:31:42.872Z,99250.53
2022-08-17T13:34:33.330Z,99249.44
2022-08-17T13:37:29.697Z,99248.03
2022-08-17T13:40:00.372Z,99257.31
2022-08-17T13:42:52.759Z,99258.19
2022-08-17T13:45:45.481Z,99258.81
2022-08-17T13:48:23.356Z,99267.66
2022-08-17T13:51:12.235Z,99267.16
2022-08-17T13:53:56.695Z,99276.84
2022-08-17T13:56:50.455Z,99273.69
2022-08-17T13:59:52.651Z,99259.75
2022-08-17T14:02:17.306Z,99261.19
2022-08-17T14:04:46.772Z,99253.88
2022-08-17T14:07:32.025Z,99246.91
2022-08-17T14:10:04.677Z,99254.28
2022-08-17T14:12:35.397Z,99251.63
2022-08-17T14:15:02.463Z,99257.44
2022-08-17T14:17:30.097Z,99253.66
2022-08-17T14:19:58.954Z,99267.06
2022-08-17T14:22:33.070Z,99255.50
2022-08-17T14:25:04.680Z,99248.88
2022-08-17T14:27:41.876Z,99247.53
2022-08-17T14:30:21.962Z,99239.38
2022-08-17T14:32:49.880Z,99249.09
2022-08-17T14:35:17.577Z,99230.84
2022-08-17T14:37:44.788Z,99242.16
2022-08-17T14:40:13.567Z,99245.81
2022-08-17T14:42:43.854Z,99242.09
2022-08-17T14:45:29.830Z,99254.41
2022-08-17T14:47:59.300Z,99246.53
2022-08-17T14:50:25.930Z,99238.94
2022-08-17T14:52:53.163Z,99238.66
2022-08-17T14:55:35.992Z,99240.94
2022-08-17T14:58:07.847Z,99241.00
2022-08-17T15:00:39.942Z,99237.94
2022-08-17T15:03:06.664Z,99246.69
2022-08-17T15:05:36.246Z,99240.41
2022-08-17T15:08:04.010Z,99230.16
2022-08-17T15:10:31.116Z,99237.56
2022-08-17T15:12:58.242Z,99228.41
2022-08-17T15:15:26.433Z,99231.91
2022-08-17T15:17:55.189Z,99209.47
2022-08-17T15:20:26.444Z,99218.47
2022-08-17T15:22:53.594Z,99221.56
2022-08-17T15:25:20.426Z,99224.03
2022-08-17T15:27:48.437Z,99219.13
2022-08-17T15:30:16.123Z,99205.25
2022-08-17T15:32:54.464Z,99214.28
2022-08-17T15:35:26.930Z,99203.88
2022-08-17T15:37:56.892Z,99213.97
2022-08-17T15:40:23.757Z,99208.94
2022-08-17T15:42:51.184Z,99209.41
2022-08-17T15:45:22.969Z,99205.56
2022-08-17T15:47:52.058Z,99198.13
2022-08-17T15:50:19.007Z,99203.59
2022-08-17T15:52:45.767Z,99200.00
2022-08-17T15:55:14.630Z,99199.91
2022-08-17T15:57:41.955Z,99197.75
2022-08-17T16:00:12.075Z,99195.09
2022-08-17T16:03:44.959Z,99203.63
2022-08-17T16:05:31.720Z,99205.09
2022-08-17T16:08:00.257Z,99200.78
2022-08-17T16:10:35.271Z,99206.44
2022-08-17T16:13:04.083Z,99223.56
2022-08-17T16:15:31.376Z,99224.72
2022-08-17T16:17:58.404Z,99227.22
2022-08-17T16:20:26.073Z,99234.94
2022-08-17T16:22:55.458Z,99233.50
2022-08-17T16:25:38.409Z,99236.56
2022-08-17T16:28:22.001Z,99235.44
2022-08-17T16:30:49.292Z,99230.19
2022-08-17T16:33:15.967Z,99223.41
2022-08-17T16:35:43.991Z,99236.94
2022-08-17T16:38:12.002Z,99243.81
2022-08-17T16:40:40.946Z,99253.78
2022-08-17T16:43:11.798Z,99247.94
2022-08-17T16:45:38.520Z,99248.13
2022-08-17T16:48:05.399Z,99248.41
2022-08-17T16:50:32.646Z,99254.63
2022-08-17T16:53:05.252Z,99256.38
2022-08-17T16:55:33.946Z,99244.91
2022-08-17T16:58:00.895Z,99236.75
2022-08-17T17:00:27.528Z,99244.50
2022-08-17T17:02:54.361Z,99238.22
2022-08-17T17:05:44.590Z,99245.38
2022-08-17T17:08:23.228Z,99241.75
2022-08-17T17:10:54.445Z,99243.69
2022-08-17T17:13:26.617Z,99235.78
2022-08-17T17:15:58.581Z,99234.34
2022-08-17T17:18:37.591Z,99242.75
2022-08-17T17:21:12.973Z,99244.91
2022-08-17T17:23:48.351Z,99255.25
2022-08-17T17:26:37.897Z,99253.97
2022-08-17T17:29:14.056Z,99262.34
2022-08-17T17:31:47.161Z,99263.84
2022-08-17T17:34:16.063Z,99273.53
2022-08-17T17:36:47.333Z,99266.44
2022-08-17T17:39:17.826Z,99281.47
2022-08-17T17:41:48.963Z,99268.59
2022-08-17T17:44:20.016Z,99273.09
2022-08-17T17:46:53.134Z,99267.72
2022-08-17T17:49:20.396Z,99258.69
2022-08-17T17:52:10.816Z,99281.47
2022-08-17T17:54:52.689Z,99285.13
2022-08-17T17:57:29.728Z,99289.63
2022-08-17T18:00:04.496Z,99287.91
2022-08-17T18:02:45.278Z,99288.34
2022-08-17T18:05:44.442Z,99294.97
2022-08-17T18:08:31.956Z,99294.34
2022-08-17T18:11:07.974Z,99289.44
2022-08-17T18:13:53.237Z,99287.69
2022-08-17T18:16:20.493Z,99282.31
2022-08-17T18:18:49.058Z,99292.56
2022-08-17T18:21:19.964Z,99290.63
2022-08-17T18:23:52.531Z,99293.84
2022-08-17T18:26:38.670Z,99291.00
2022-08-17T18:29:21.388Z,99283.69
2022-08-17T18:31:48.238Z,99281.19
2022-08-17T18:34:43.684Z,99287.34
2022-08-17T18:37:09.243Z,99295.66
2022-08-17T18:39:36.093Z,99304.44
2022-08-17T18:42:25.219Z,99306.97
2022-08-17T18:44:55.365Z,99313.50
2022-08-17T18:47:24.457Z,99305.16
2022-08-17T18:49:54.209Z,99315.00
2022-08-17T18:52:26.685Z,99315.31
2022-08-17T18:55:07.173Z,99329.84
2022-08-17T18:57:36.326Z,99334.75
2022-08-17T19:00:12.057Z,99336.63
2022-08-17T19:02:50.497Z,99333.97
2022-08-17T19:05:33.251Z,99343.38
2022-08-17T19:08:17.679Z,99347.91
2022-08-17T19:10:45.867Z,99342.72
2022-08-17T19:13:24.501Z,99349.38
2022-08-17T19:16:12.325Z,99358.28
2022-08-17T19:18:45.452Z,99354.88
2022-08-17T19:21:18.253Z,99362.31
2022-08-17T19:23:54.068Z,99368.28
2022-08-17T19:26:54.550Z,99364.25
2022-08-17T19:29:16.823Z,99361.47
2022-08-17T19:31:50.286Z,99363.63
2022-08-17T19:34:33.446Z,99355.84
2022-08-17T19:37:06.509Z,99356.94
2022-08-17T19:39:40.664Z,99342.81
2022-08-17T19:42:14.956Z,99349.03
2022-08-17T19:44:58.953Z,99355.41
2022-08-17T19:47:54.307Z,99352.03
2022-08-17T19:50:30.349Z,99353.78
2022-08-17T19:53:17.107Z,99353.28
2022-08-17T19:55:52.753Z,99354.94
2022-08-17T19:58:35.356Z,99353.03
2022-08-17T20:01:04.729Z,99354.06
2022-08-17T20:03:38.353Z,99360.69
2022-08-17T20:06:13.024Z,99368.63
2022-08-17T20:08:47.725Z,99375.22
2022-08-17T20:11:20.788Z,99376.66
2022-08-17T20:13:52.281Z,99375.66
2022-08-17T20:16:19.839Z,99379.63
2022-08-17T20:18:55.217Z,99375.44
2022-08-17T20:21:27.092Z,99378.63
2022-08-17T20:24:01.769Z,99371.34
2022-08-17T20:26:51.263Z,99372.94
2022-08-17T20:29:39.814Z,99369.88
2022-08-17T20:32:32.161Z,99367.47
2022-08-17T20:35:28.529Z,99364.91
2022-08-17T20:38:08.788Z,99367.78
2022-08-17T20:40:38.552Z,99376.88
2022-08-17T20:43:45.481Z,99376.88
2022-08-17T20:46:41.369Z,99378.88
2022-08-17T20:49:22.976Z,99389.09
2022-08-17T20:52:01.808Z,99387.88
2022-08-17T20:54:50.323Z,99391.97
2022-08-17T20:57:45.170Z,99394.91
2022-08-17T21:00:13.384Z,99390.41
2022-08-17T21:02:41.133Z,99390.13
2022-08-17T21:05:30.264Z,99389.84
2022-08-17T21:08:00.843Z,99386.56
2022-08-17T21:10:37.330Z,99393.94
2022-08-17T21:13:46.546Z,99398.81
2022-08-17T21:16:44.039Z,99393.47
2022-08-17T21:19:37.588Z,99394.81
2022-08-17T21:22:22.569Z,99397.28
2022-08-17T21:24:57.368Z,99396.69
2022-08-17T21:27:38.569Z,99402.59
2022-08-17T21:30:22.012Z,99404.38
2022-08-17T21:33:18.588Z,99399.94
2022-08-17T21:35:50.864Z,99392.16
2022-08-17T21:38:20.002Z,99402.97
2022-08-17T21:40:49.447Z,99395.84
2022-08-17T21:43:34.253Z,99403.25
2022-08-17T21:46:04.536Z,99396.16
2022-08-17T21:48:40.125Z,99395.16
2022-08-17T21:51:09.348Z,99401.75
2022-08-17T21:53:47.448Z,99398.13
2022-08-17T21:56:24.664Z,99407.47
2022-08-17T21:58:58.434Z,99409.56
2022-08-17T22:01:27.929Z,99411.00
2022-08-17T22:03:58.578Z,99412.75
2022-08-17T22:06:27.736Z,99416.75
2022-08-17T22:09:14.776Z,99414.34
2022-08-17T22:11:51.984Z,99403.81
2022-08-17T22:14:21.890Z,99405.75
2022-08-17T22:17:04.644Z,99409.38
2022-08-17T22:19:31.945Z,99416.47
2022-08-17T22:22:03.484Z,99425.72
2022-08-17T22:24:30.292Z,99434.75
2022-08-17T22:27:04.416Z,99432.13
2022-08-17T22:29:59.873Z,99426.47
2022-08-17T22:32:32.297Z,99422.97
2022-08-17T22:35:19.912Z,99427.44
2022-08-17T22:37:47.066Z,99417.78
2022-08-17T22:40:25.048Z,99415.88
2022-08-17T22:42:51.983Z,99409.50
2022-08-17T22:45:20.058Z,99410.72
2022-08-17T22:47:47.199Z,99412.78
2022-08-17T22:50:21.496Z,99424.06
2022-08-17T22:52:57.447Z,99413.19
2022-08-17T22:55:25.642Z,99409.41
2022-08-17T22:57:52.792Z,99418.59
2022-08-17T23:00:36.448Z,99410.09
2022-08-17T23:03:10.603Z,99410.25
2022-08-17T23:05:38.810Z,99416.50
2022-08-17T23:08:05.507Z,99414.09
2022-08-17T23:10:32.172Z,99431.41
2022-08-17T23:12:59.554Z,99428.47
2022-08-17T23:15:28.117Z,99435.25
2022-08-17T23:17:56.452Z,99432.28
2022-08-17T23:20:23.410Z,99430.38
2022-08-17T23:22:51.904Z,99431.63
2022-08-17T23:25:25.695Z,99433.69
2022-08-17T23:27:52.650Z,99423.69
2022-08-17T23:30:19.552Z,99423.81
2022-08-17T23:32:53.336Z,99422.47
2022-08-17T23:35:40.114Z,99436.09
2022-08-17T23:38:08.771Z,99432.81
2022-08-17T23:40:37.613Z,99440.97
2022-08-17T23:43:12.921Z,99433.69
2022-08-17T23:45:52.713Z,99438.19
2022-08-17T23:48:28.533Z,99448.72
2022-08-17T23:51:12.958Z,99442.34
2022-08-17T23:53:42.725Z,99438.19
2022-08-17T23:56:10.908Z,99441.66
2022-08-17T23:58:39.260Z,99435.59
